Time;durP1;ratioP1;P1;durP2;ratioP2;P2;SDS_P1;SDS_P2;PMS_P1;PMS_P2;Temp;Humidity;BMP_temperature;BMP_pressure;BME280_temperature;BME280_humidity;BME280_pressure;Samples;Min_cycle;Max_cycle;Signal;HPM_P1;HPM_P2
2022/07/21 00:00:53;;;;;;;10.95;9.85;;;;;;;20.24;75.86;101681.88;5017851;28;20032;-64
2022/07/21 00:03:19;;;;;;;10.65;9.65;;;;;;;20.40;75.20;101666.03;5031148;28;20055;-64
2022/07/21 00:05:44;;;;;;;11.10;10.00;;;;;;;20.34;75.50;101683.34;5023155;28;20037;-64
2022/07/21 00:08:09;;;;;;;11.27;10.18;;;;;;;20.52;74.09;101685.78;5030179;28;20039;-67
2022/07/21 00:10:35;;;;;;;11.88;10.77;;;;;;;20.60;73.84;101683.16;5022493;28;20038;-66
2022/07/21 00:13:00;;;;;;;11.57;10.38;;;;;;;20.54;73.59;101675.94;5034309;28;20035;-65
2022/07/21 00:15:27;;;;;;;12.02;10.82;;;;;;;20.53;74.09;101682.19;5028401;28;20025;-68
2022/07/21 00:17:53;;;;;;;11.25;10.07;;;;;;;20.35;74.76;101678.88;5021661;28;20112;-64
2022/07/21 00:20:19;;;;;;;11.63;10.52;;;;;;;20.21;75.43;101676.97;5032891;28;20432;-65
2022/07/21 00:22:45;;;;;;;11.50;10.40;;;;;;;20.36;74.13;101676.09;5020955;28;20044;-64
2022/07/21 00:25:12;;;;;;;12.00;10.90;;;;;;;20.05;76.11;101670.72;5032619;28;20021;-65
2022/07/21 00:27:37;;;;;;;12.52;11.23;;;;;;;20.02;76.69;101678.97;5024656;28;20508;-64
2022/07/21 00:30:08;;;;;;;12.25;11.05;;;;;;;20.11;76.24;101672.69;5023883;28;20057;-64
2022/07/21 00:32:34;;;;;;;12.63;11.38;;;;;;;20.12;75.51;101666.41;5023164;28;20040;-64
2022/07/21 00:34:59;;;;;;;12.68;11.48;;;;;;;19.93;76.50;101663.34;5017190;28;20029;-65
2022/07/21 00:37:26;;;;;;;13.38;12.02;;;;;;;20.09;75.83;101664.13;5020835;28;20466;-65
2022/07/21 00:39:52;;;;;;;13.02;11.73;;;;;;;20.13;76.32;101662.00;5025288;28;20389;-64
2022/07/21 00:42:26;;;;;;;12.50;11.40;;;;;;;19.94;76.90;101660.53;5022097;28;20022;-65
2022/07/21 00:44:52;;;;;;;13.55;12.35;;;;;;;19.86;76.81;101653.47;5016353;28;20053;-64
2022/07/21 00:47:22;;;;;;;13.57;12.38;;;;;;;19.77;77.88;101653.63;5025955;28;20448;-64
2022/07/21 00:49:48;;;;;;;13.43;12.13;;;;;;;19.89;76.61;101657.56;5028589;28;20041;-64
2022/07/21 00:52:14;;;;;;;13.82;12.52;;;;;;;19.71;77.52;101641.13;5009975;28;20029;-66
2022/07/21 00:54:39;;;;;;;13.30;12.10;;;;;;;19.76;77.91;101647.53;5014986;28;20075;-65
2022/07/21 00:57:05;;;;;;;14.27;12.88;;;;;;;19.87;77.04;101654.28;5022543;28;20076;-65
2022/07/21 00:59:31;;;;;;;13.68;12.38;;;;;;;19.83;77.12;101651.16;5026333;28;20048;-65
2022/07/21 01:01:56;;;;;;;13.25;11.95;;;;;;;19.99;76.10;101637.16;5023792;28;20462;-64
2022/07/21 01:04:21;;;;;;;14.30;12.88;;;;;;;19.80;77.57;101642.78;5035004;28;20112;-64
2022/07/21 01:06:47;;;;;;;13.63;12.43;;;;;;;19.90;77.35;101643.44;5027163;28;20385;-64
2022/07/21 01:09:13;;;;;;;14.90;13.60;;;;;;;19.76;77.89;101641.47;5019870;28;20029;-65
2022/07/21 01:11:39;;;;;;;14.18;12.88;;;;;;;19.97;76.65;101636.50;5023125;28;20038;-64
2022/07/21 01:14:05;;;;;;;14.38;13.02;;;;;;;20.04;76.41;101626.94;5013596;28;20013;-68
2022/07/21 01:16:31;;;;;;;15.07;13.68;;;;;;;19.76;78.01;101625.66;5026443;28;20065;-64
2022/07/21 01:18:57;;;;;;;15.73;13.98;;;;;;;19.70;77.71;101631.59;5023971;28;20372;-70
2022/07/21 01:21:27;;;;;;;16.30;14.80;;;;;;;19.70;78.47;101636.84;5007741;28;20014;-64
2022/07/21 01:23:52;;;;;;;14.98;13.63;;;;;;;19.58;78.51;101634.56;5022897;28;20056;-67
2022/07/21 01:26:18;;;;;;;15.10;13.63;;;;;;;19.80;77.12;101632.25;5024483;28;20032;-64
2022/07/21 01:28:43;;;;;;;16.33;14.93;;;;;;;19.74;78.04;101638.19;5025319;28;20057;-65
2022/07/21 01:31:08;;;;;;;15.98;14.48;;;;;;;19.92;76.63;101625.66;5027808;28;20045;-64
2022/07/21 01:33:35;;;;;;;16.33;14.88;;;;;;;19.76;77.96;101630.94;5024671;28;20111;-65
2022/07/21 01:36:00;;;;;;;17.33;15.80;;;;;;;19.92;76.70;101630.09;5024614;28;20443;-64
2022/07/21 01:41:51;;;;;;;18.58;16.98;;;;;;;19.63;77.06;101595.41;5012399;28;20032;-64
2022/07/21 01:44:01;;;;;;;17.65;16.05;;;;;;;19.85;77.30;101640.47;5018246;28;20081;-65
2022/07/21 01:46:29;;;;;;;17.60;16.00;;;;;;;19.80;77.79;101640.16;5027161;28;20500;-65
2022/07/21 01:48:54;;;;;;;18.27;16.58;;;;;;;19.74;77.88;101632.91;5024472;28;20486;-64
2022/07/21 01:51:19;;;;;;;17.88;16.27;;;;;;;19.88;77.13;101637.50;5023510;28;20037;-68
2022/07/21 01:53:45;;;;;;;18.98;17.27;;;;;;;19.89;77.30;101625.97;5037983;28;20572;-64
2022/07/21 01:56:10;;;;;;;18.98;17.27;;;;;;;19.65;78.52;101628.63;5024603;28;20074;-65
2022/07/21 01:58:36;;;;;;;19.65;17.85;;;;;;;19.75;77.89;101618.75;5027217;28;20017;-70
2022/07/21 02:01:02;;;;;;;20.98;19.08;;;;;;;19.53;78.89;101621.03;5031919;28;20466;-65
2022/07/21 02:03:27;;;;;;;20.98;19.08;;;;;;;19.71;77.96;101623.53;5015486;28;20025;-64
2022/07/21 02:05:52;;;;;;;20.85;18.77;;;;;;;19.53;79.24;101626.28;5021990;28;20363;-67
2022/07/21 02:08:17;;;;;;;21.15;19.35;;;;;;;19.65;78.75;101628.63;5022521;28;20026;-64
2022/07/21 02:10:43;;;;;;;20.73;18.85;;;;;;;19.65;77.86;101628.63;5018567;28;20061;-66
2022/07/21 02:13:08;;;;;;;21.00;19.17;;;;;;;19.70;77.52;101621.06;5024359;28;20026;-66
2022/07/21 02:15:34;;;;;;;22.27;20.17;;;;;;;19.46;79.76;101630.56;5018611;28;20037;-65
2022/07/21 02:17:59;;;;;;;21.98;20.08;;;;;;;19.37;79.80;101626.28;5038390;28;20029;-64
2022/07/21 02:20:25;;;;;;;21.35;19.35;;;;;;;19.38;79.66;101622.66;5025293;28;20454;-65
2022/07/21 02:22:51;;;;;;;22.20;20.30;;;;;;;19.58;78.99;101624.03;5025709;28;20026;-64
2022/07/21 02:25:17;;;;;;;21.85;19.95;;;;;;;19.56;78.75;101633.06;5025050;28;20036;-64
2022/07/21 02:27:44;;;;;;;22.98;21.02;;;;;;;19.46;79.50;101627.94;5020601;28;20022;-67
2022/07/21 02:30:10;;;;;;;22.42;20.25;;;;;;;19.63;78.62;101621.72;5025646;28;20375;-65
2022/07/21 02:32:36;;;;;;;22.27;20.17;;;;;;;19.65;78.27;101620.72;5022180;28;20048;-65
2022/07/21 02:35:01;;;;;;;22.17;20.27;;;;;;;19.66;78.73;101614.47;5022837;28;20025;-65
2022/07/21 02:37:28;;;;;;;23.48;21.35;;;;;;;19.69;78.21;101603.63;5028555;28;20548;-69
2022/07/21 02:39:53;;;;;;;21.88;19.98;;;;;;;19.66;78.16;101599.50;5025701;28;20496;-64
2022/07/21 02:42:18;;;;;;;21.65;19.75;;;;;;;19.66;78.36;101593.44;5023023;28;20029;-64
2022/07/21 02:44:44;;;;;;;21.58;19.65;;;;;;;19.62;78.07;101585.88;5015977;28;20026;-64
2022/07/21 02:47:09;;;;;;;21.45;19.42;;;;;;;19.71;78.31;101601.66;5025483;28;20065;-64
2022/07/21 02:49:34;;;;;;;20.67;18.75;;;;;;;19.59;78.75;101594.09;5021814;28;20021;-68
2022/07/21 02:51:59;;;;;;;21.30;19.40;;;;;;;19.54;79.17;101585.84;5028730;28;20080;-64
2022/07/21 02:54:25;;;;;;;22.35;20.35;;;;;;;19.62;78.62;101588.50;5017840;28;20105;-64
2022/07/21 02:56:51;;;;;;;21.98;20.10;;;;;;;19.46;79.15;101604.25;5020971;28;20029;-64
2022/07/21 02:59:16;;;;;;;22.08;20.17;;;;;;;19.53;78.78;101604.44;5028543;28;20449;-64
2022/07/21 03:01:42;;;;;;;23.02;21.02;;;;;;;19.53;78.43;101615.78;5017313;28;20037;-65
2022/07/21 03:04:07;;;;;;;22.60;20.60;;;;;;;19.48;79.53;101607.53;5021450;28;20040;-68
2022/07/21 03:06:33;;;;;;;22.35;20.35;;;;;;;19.51;78.90;101601.16;5023158;28;20052;-66
2022/07/21 03:08:58;;;;;;;23.98;21.83;;;;;;;19.34;80.22;101610.84;5019330;28;20054;-65
2022/07/21 03:11:24;;;;;;;22.58;20.58;;;;;;;19.26;80.52;101597.66;5025370;28;20027;-65
2022/07/21 03:13:49;;;;;;;23.20;21.10;;;;;;;19.18;81.40;101597.66;5040470;28;20025;-64
2022/07/21 03:16:15;;;;;;;21.77;19.85;;;;;;;19.36;80.08;101593.91;5036111;28;20025;-64
2022/07/21 03:18:41;;;;;;;22.58;20.67;;;;;;;19.32;79.67;101594.38;5023529;28;20080;-65
2022/07/21 03:21:08;;;;;;;21.55;19.45;;;;;;;19.51;78.92;101607.22;5009077;28;20022;-64
2022/07/21 03:23:33;;;;;;;22.97;20.97;;;;;;;19.38;79.50;101606.88;5022488;28;20465;-65
2022/07/21 03:25:59;;;;;;;22.52;20.63;;;;;;;19.34;79.18;101595.06;5016130;28;20030;-65
2022/07/21 03:28:24;;;;;;;22.33;20.42;;;;;;;19.32;80.44;101602.28;5014990;28;20374;-64
2022/07/21 03:30:49;;;;;;;22.55;20.55;;;;;;;19.43;79.07;101609.03;5016519;28;20431;-65
2022/07/21 03:33:15;;;;;;;24.08;21.88;;;;;;;19.39;79.06;101613.00;5026837;28;20036;-69
2022/07/21 03:35:41;;;;;;;23.38;21.35;;;;;;;19.31;79.44;101611.16;5018650;28;20036;-64
2022/07/21 03:38:07;;;;;;;24.08;21.83;;;;;;;19.37;79.55;101610.50;5038672;28;20037;-65
2022/07/21 03:40:36;;;;;;;23.85;21.75;;;;;;;19.29;79.82;101613.13;5023754;28;20064;-64
2022/07/21 03:43:03;;;;;;;23.98;21.85;;;;;;;19.27;79.54;101600.16;5018983;28;20425;-69
2022/07/21 03:45:30;;;;;;;23.00;20.80;;;;;;;19.30;79.56;101615.59;5017033;28;20528;-64
2022/07/21 03:47:57;;;;;;;24.52;22.42;;;;;;;19.16;80.14;101610.16;5020441;28;20082;-64
2022/07/21 03:50:23;;;;;;;23.23;21.13;;;;;;;19.23;79.90;101613.78;5022006;28;20029;-64
2022/07/21 03:52:49;;;;;;;22.63;20.63;;;;;;;19.16;80.40;101607.53;5010570;28;20044;-64
2022/07/21 03:55:17;;;;;;;23.55;21.45;;;;;;;19.28;79.41;101616.75;5018573;28;20112;-64
2022/07/21 03:57:53;;;;;;;;;;;;;;;19.37;78.29;101621.84;5026306;28;20592;-66
2022/07/21 04:00:26;;;;;;;23.13;21.02;;;;;;;19.25;79.46;101622.31;5016122;28;19917;-63
2022/07/21 04:02:52;;;;;;;24.58;22.35;;;;;;;19.23;79.68;101616.41;5023479;28;20041;-64
2022/07/21 04:05:18;;;;;;;23.73;21.70;;;;;;;19.23;79.79;101619.03;5021456;28;20072;-67
2022/07/21 04:07:45;;;;;;;24.42;22.10;;;;;;;19.24;79.66;101618.06;5020124;28;20021;-64
2022/07/21 04:10:14;;;;;;;23.95;21.75;;;;;;;19.18;79.99;101616.91;5016232;28;20390;-64
2022/07/21 04:12:39;;;;;;;24.63;22.40;;;;;;;19.24;79.49;101618.88;5021294;28;20029;-67
2022/07/21 04:15:06;;;;;;;23.83;21.73;;;;;;;19.20;80.08;101614.09;5017307;28;20033;-63
2022/07/21 04:17:32;;;;;;;23.95;21.65;;;;;;;19.14;80.11;101605.03;5025023;28;20036;-64
2022/07/21 04:19:57;;;;;;;26.13;23.73;;;;;;;19.18;79.95;101610.81;5020699;28;20325;-64
2022/07/21 04:22:23;;;;;;;25.15;22.75;;;;;;;19.23;79.80;101613.78;5026172;28;20032;-69
2022/07/21 04:24:48;;;;;;;25.10;22.70;;;;;;;19.22;79.75;101606.88;5018641;28;20041;-64
2022/07/21 04:27:13;;;;;;;25.73;23.33;;;;;;;19.06;80.96;101603.25;5025550;28;20017;-64
2022/07/21 04:29:39;;;;;;;24.98;22.67;;;;;;;19.17;80.10;101611.81;5019771;28;20121;-65
2022/07/21 04:32:05;;;;;;;25.63;23.23;;;;;;;19.19;79.93;101605.38;5020864;28;20489;-64
2022/07/21 04:34:30;;;;;;;24.92;22.58;;;;;;;19.12;80.49;101611.47;5026414;28;20034;-64
2022/07/21 04:36:55;;;;;;;25.45;23.13;;;;;;;19.07;80.84;101612.75;5032246;28;20022;-64
2022/07/21 04:39:21;;;;;;;24.88;22.75;;;;;;;19.06;81.08;101605.88;5033577;28;20075;-63
2022/07/21 04:41:46;;;;;;;25.17;22.88;;;;;;;19.10;80.47;101609.81;5018160;28;20033;-63
2022/07/21 04:44:11;;;;;;;26.65;24.15;;;;;;;19.07;80.25;101610.13;5027556;28;20025;-63
2022/07/21 04:46:37;;;;;;;25.70;23.38;;;;;;;19.10;80.37;101612.47;5026885;28;20067;-66
2022/07/21 04:49:02;;;;;;;27.33;24.73;;;;;;;19.09;81.11;101616.03;5025209;28;20381;-63
2022/07/21 04:51:28;;;;;;;27.08;24.50;;;;;;;18.98;82.10;101621.63;5022767;28;20458;-64
2022/07/21 04:53:53;;;;;;;26.85;24.25;;;;;;;18.95;82.09;101624.56;5035879;28;20040;-65
2022/07/21 04:56:18;;;;;;;25.25;23.05;;;;;;;19.02;80.86;101617.69;5026543;28;20517;-64
2022/07/21 04:58:44;;;;;;;25.30;22.80;;;;;;;19.12;80.60;101619.34;5030152;28;20079;-64
2022/07/21 05:01:09;;;;;;;24.55;22.35;;;;;;;18.92;82.40;101621.44;5033356;28;20016;-63
2022/07/21 05:03:34;;;;;;;25.13;22.73;;;;;;;18.97;81.53;101617.34;5033065;28;20061;-64
2022/07/21 05:06:00;;;;;;;25.60;23.30;;;;;;;18.88;82.63;101620.13;5026927;28;20032;-63
2022/07/21 05:08:27;;;;;;;23.73;21.52;;;;;;;18.97;81.98;101617.34;5022366;28;20439;-63
2022/07/21 05:10:52;;;;;;;24.65;22.25;;;;;;;18.96;82.22;101618.31;5018310;28;20037;-64
2022/07/21 05:13:18;;;;;;;23.88;21.65;;;;;;;18.90;82.73;101616.34;5026546;28;20500;-64
2022/07/21 05:15:43;;;;;;;22.92;20.83;;;;;;;19.04;80.88;101620.16;5033306;28;20032;-64
2022/07/21 05:18:08;;;;;;;23.25;20.95;;;;;;;19.15;80.43;101616.38;5038400;28;20029;-63
2022/07/21 05:20:34;;;;;;;21.60;19.60;;;;;;;19.09;80.43;101612.59;5023785;28;20466;-63
2022/07/21 05:23:00;;;;;;;21.45;19.25;;;;;;;19.12;80.34;101600.94;5027831;28;20064;-68
2022/07/21 05:25:26;;;;;;;21.42;19.33;;;;;;;19.22;79.67;101612.16;5036358;28;20028;-63
2022/07/21 05:27:51;;;;;;;22.27;20.02;;;;;;;19.05;81.50;101612.13;5025320;28;20025;-67
2022/07/21 05:30:16;;;;;;;20.83;18.88;;;;;;;19.02;80.92;101607.16;5027890;28;20057;-64
2022/07/21 05:32:42;;;;;;;20.67;18.73;;;;;;;18.88;81.83;101599.91;5030209;28;20026;-63
2022/07/21 05:35:10;;;;;;;21.15;19.05;;;;;;;19.02;81.36;101606.34;5025624;28;20477;-68
2022/07/21 05:37:38;;;;;;;20.83;18.73;;;;;;;19.10;80.11;101601.94;5018050;28;20022;-63
2022/07/21 05:40:04;;;;;;;20.03;18.13;;;;;;;19.10;80.13;101601.94;5018952;28;20029;-64
2022/07/21 05:42:29;;;;;;;21.23;19.05;;;;;;;18.93;81.12;101595.00;5018116;28;20370;-68
2022/07/21 05:44:56;;;;;;;19.98;17.88;;;;;;;19.15;80.05;101605.88;5019561;28;20018;-64
2022/07/21 05:47:21;;;;;;;20.50;18.50;;;;;;;19.01;81.20;101605.53;5019026;28;20022;-67
2022/07/21 05:49:47;;;;;;;21.05;18.95;;;;;;;19.00;80.98;101598.63;5020959;28;20038;-64
2022/07/21 05:52:12;;;;;;;21.38;19.40;;;;;;;18.88;81.69;101599.91;5029318;28;20028;-64
2022/07/21 05:54:37;;;;;;;21.27;19.25;;;;;;;19.04;80.73;101602.59;5034713;28;20028;-67
2022/07/21 05:57:02;;;;;;;20.60;18.52;;;;;;;19.01;80.60;101607.34;5014186;28;20029;-64
2022/07/21 05:59:28;;;;;;;20.35;18.35;;;;;;;19.02;80.31;101596.66;5016664;28;20021;-64
2022/07/21 06:01:53;;;;;;;21.45;19.27;;;;;;;18.89;81.45;101596.31;5018975;28;20109;-67
2022/07/21 06:04:19;;;;;;;20.48;18.48;;;;;;;19.05;79.97;101591.09;5024590;28;20034;-66
2022/07/21 06:06:44;;;;;;;21.60;19.48;;;;;;;18.90;81.58;101595.31;5016220;28;20029;-66
2022/07/21 06:09:09;;;;;;;20.77;18.70;;;;;;;19.01;80.71;101600.25;5014743;28;20378;-63
2022/07/21 06:11:35;;;;;;;21.40;19.30;;;;;;;19.06;79.86;101592.72;5017225;28;20022;-64
2022/07/21 06:14:00;;;;;;;22.05;19.83;;;;;;;19.06;79.93;101597.97;5019232;28;20025;-64
2022/07/21 06:16:25;;;;;;;21.15;19.02;;;;;;;19.18;78.99;101600.28;5025783;28;20108;-63
2022/07/21 06:18:51;;;;;;;21.50;19.30;;;;;;;19.21;79.05;101599.97;5016791;28;20120;-65
2022/07/21 06:21:17;;;;;;;21.40;19.30;;;;;;;19.22;79.01;101605.06;5021813;28;20029;-63
2022/07/21 06:23:43;;;;;;;21.80;19.70;;;;;;;19.30;78.96;101604.25;5027138;28;20030;-63
2022/07/21 06:26:08;;;;;;;22.98;20.67;;;;;;;19.27;78.74;101604.59;5015122;28;20036;-65
2022/07/21 06:28:33;;;;;;;22.63;20.33;;;;;;;19.28;78.82;101599.16;5018834;28;20125;-63
2022/07/21 06:30:59;;;;;;;22.90;20.60;;;;;;;19.30;78.91;101605.06;5025931;28;20116;-64
2022/07/21 06:33:24;;;;;;;22.92;20.65;;;;;;;19.32;78.80;101603.09;5025324;28;20483;-64
2022/07/21 06:35:50;;;;;;;23.48;21.10;;;;;;;19.24;78.87;101583.88;5037012;28;20033;-63
2022/07/21 06:38:15;;;;;;;24.05;21.52;;;;;;;19.21;80.45;101594.69;5028434;28;20469;-63
2022/07/21 06:40:40;;;;;;;25.00;21.63;;;;;;;19.40;79.12;101594.41;5026151;28;20120;-61
2022/07/21 06:43:06;;;;;;;24.13;21.35;;;;;;;19.41;78.85;101593.41;5024576;28;20096;-61
2022/07/21 06:45:31;;;;;;;25.20;22.52;;;;;;;19.40;78.26;101601.47;5022864;28;20025;-62
2022/07/21 06:48:05;;;;;;;24.52;21.95;;;;;;;19.39;78.53;101598.03;5020488;28;20358;-63
2022/07/21 06:50:30;;;;;;;25.42;22.75;;;;;;;19.43;77.80;101591.44;5020173;28;20033;-62
2022/07/21 06:52:56;;;;;;;26.58;23.92;;;;;;;19.41;78.34;101593.41;5022634;28;20382;-64
2022/07/21 06:55:21;;;;;;;26.42;23.48;;;;;;;19.32;78.82;101579.41;5023784;28;20029;-62
2022/07/21 06:57:47;;;;;;;24.90;22.30;;;;;;;19.43;78.60;101588.78;5034042;28;20720;-61
2022/07/21 07:00:12;;;;;;;25.83;23.23;;;;;;;19.44;79.55;101590.47;5031882;28;20057;-63
2022/07/21 07:02:38;;;;;;;26.00;23.30;;;;;;;19.48;79.66;101586.50;5015343;28;20061;-67
2022/07/21 07:05:04;;;;;;;24.48;21.88;;;;;;;19.67;78.45;101605.59;5025724;28;20427;-65
2022/07/21 07:07:30;;;;;;;25.88;23.02;;;;;;;19.68;78.00;101596.72;5018920;28;20442;-62
2022/07/21 07:09:56;;;;;;;24.88;22.35;;;;;;;19.74;77.55;101596.88;5021338;28;20528;-66
2022/07/21 07:12:21;;;;;;;25.27;22.58;;;;;;;19.75;78.70;101613.50;5029842;28;20041;-62
2022/07/21 07:14:46;;;;;;;25.95;23.35;;;;;;;19.80;78.82;101627.00;5012426;23;20399;-77
2022/07/21 07:17:16;;;;;;;25.23;22.63;;;;;;;19.90;78.70;101625.00;4989997;28;20077;-77
2022/07/21 07:19:42;;;;;;;26.08;23.48;;;;;;;19.93;77.71;101616.75;4985015;28;20034;-77
2022/07/21 07:22:07;;;;;;;25.98;23.45;;;;;;;19.98;77.15;101616.25;4992055;28;20026;-77
2022/07/21 07:24:32;;;;;;;26.58;23.95;;;;;;;20.02;77.27;101609.69;4985856;28;20038;-77
2022/07/21 07:26:58;;;;;;;25.75;23.05;;;;;;;20.08;76.76;101614.28;4994709;28;20025;-76
2022/07/21 07:29:23;;;;;;;27.63;24.85;;;;;;;20.12;77.50;101613.75;4996683;28;20022;-76
2022/07/21 07:31:48;;;;;;;24.63;22.33;;;;;;;20.28;76.37;101614.69;4992841;28;20064;-77
2022/07/21 07:34:14;;;;;;;25.35;22.95;;;;;;;20.09;77.41;101616.72;4998075;28;20026;-77
2022/07/21 07:36:39;;;;;;;25.60;22.90;;;;;;;20.24;77.14;101623.91;4995875;28;20029;-77
2022/07/21 07:39:04;;;;;;;24.95;22.58;;;;;;;20.25;76.12;101625.59;4985561;28;20076;-76
2022/07/21 07:41:31;;;;;;;25.70;23.20;;;;;;;20.24;76.26;101619.47;4989389;28;20132;-77
2022/07/21 07:43:59;;;;;;;25.52;23.05;;;;;;;20.20;77.71;101630.53;5017958;28;20084;-77
2022/07/21 07:46:25;;;;;;;25.85;23.25;;;;;;;20.21;78.16;101619.84;4995003;28;20057;-77
2022/07/21 07:48:50;;;;;;;25.42;22.70;;;;;;;20.27;77.04;101618.34;4999749;28;20104;-76
2022/07/21 07:51:16;;;;;;;25.30;22.90;;;;;;;20.33;76.04;101628.19;4994675;28;20015;-77
2022/07/21 07:53:42;;;;;;;25.98;23.50;;;;;;;20.07;77.71;101629.25;5002781;28;20030;-77
2022/07/21 07:56:08;;;;;;;26.38;23.70;;;;;;;20.22;76.50;101633.81;4988398;28;20560;-76
2022/07/21 07:58:34;;;;;;;27.55;24.92;;;;;;;20.13;76.23;101638.31;4986305;28;20037;-76
2022/07/21 08:01:00;;;;;;;28.60;25.98;;;;;;;20.04;76.60;101631.41;4987849;28;20493;-76
2022/07/21 08:03:27;;;;;;;29.30;26.48;;;;;;;20.08;76.44;101646.69;4987306;28;20101;-76
2022/07/21 08:05:55;;;;;;;29.80;26.80;;;;;;;19.95;77.55;101646.38;4988233;28;20053;-77
2022/07/21 08:08:21;;;;;;;30.30;27.35;;;;;;;19.83;78.35;101652.97;4986819;28;20018;-76
2022/07/21 08:10:47;;;;;;;30.85;27.75;;;;;;;19.69;79.07;101635.22;4987265;28;20088;-76
2022/07/21 08:13:14;;;;;;;32.53;29.33;;;;;;;19.59;79.25;101651.97;4987232;28;20538;-77
2022/07/21 08:15:40;;;;;;;34.50;31.00;;;;;;;19.63;79.45;101648.03;4988772;28;20030;-77
2022/07/21 08:18:06;;;;;;;36.10;32.45;;;;;;;19.45;80.61;101644.72;4987959;28;20030;-76
2022/07/21 08:20:33;;;;;;;36.42;32.65;;;;;;;19.42;81.53;101650.28;4988184;28;20030;-77
2022/07/21 08:22:58;;;;;;;37.88;34.08;;;;;;;19.44;82.01;101648.34;4987927;28;20054;-76
2022/07/21 08:25:23;;;;;;;37.50;33.83;;;;;;;19.48;82.32;101633.84;4987851;28;20314;-76
2022/07/21 08:27:49;;;;;;;37.83;34.05;;;;;;;19.44;82.90;101632.56;4987033;28;20081;-76
2022/07/21 08:30:14;;;;;;;37.28;33.55;;;;;;;19.50;83.32;101626.63;4987061;28;20458;-77
2022/07/21 08:32:40;;;;;;;35.85;32.05;;;;;;;19.55;82.70;101631.38;5002071;28;20550;-76
2022/07/21 08:35:08;;;;;;;36.53;32.88;;;;;;;19.37;84.46;101631.53;4987495;28;20526;-76
2022/07/21 08:37:37;;;;;;;33.88;30.38;;;;;;;19.55;82.74;101634.84;4995092;28;20038;-76
2022/07/21 08:40:08;;;;;;;32.00;28.73;;;;;;;19.52;82.60;101632.56;4987699;28;20105;-76
2022/07/21 08:42:34;;;;;;;27.05;24.25;;;;;;;19.48;82.29;101633.84;4996161;28;20378;-75
2022/07/21 08:45:00;;;;;;;27.38;24.50;;;;;;;19.47;83.12;101634.84;4987415;28;20077;-76
2022/07/21 08:47:26;;;;;;;25.83;23.13;;;;;;;19.32;85.14;101639.09;5002389;28;20030;-75
2022/07/21 08:49:52;;;;;;;18.65;16.65;;;;;;;19.33;84.09;101638.97;4987912;28;20034;-75
2022/07/21 08:52:18;;;;;;;15.75;14.10;;;;;;;19.30;84.17;101628.75;4987035;28;20030;-76
2022/07/21 08:54:44;;;;;;;14.57;13.18;;;;;;;19.32;83.50;101625.94;4986773;28;20022;-76
2022/07/21 08:57:09;;;;;;;14.82;13.32;;;;;;;19.26;84.18;101630.03;4987631;28;20031;-76
2022/07/21 08:59:34;;;;;;;14.38;12.98;;;;;;;19.30;84.56;101630.56;4986537;28;20029;-75
2022/07/21 09:02:00;;;;;;;15.55;13.93;;;;;;;19.02;86.58;101630.00;4987597;28;20046;-76
2022/07/21 09:04:27;;;;;;;14.80;13.07;;;;;;;19.23;85.22;101630.38;4985882;28;20480;-77
2022/07/21 09:06:55;;;;;;;13.98;12.60;;;;;;;19.09;86.83;101634.44;4998107;28;20069;-77
2022/07/21 09:09:21;;;;;;;13.23;11.80;;;;;;;19.12;86.34;101638.59;4987003;28;20089;-77
2022/07/21 09:11:46;;;;;;;12.98;11.68;;;;;;;19.20;85.81;101637.75;4986327;28;20673;-78
2022/07/21 09:14:19;;;;;;;13.15;11.85;;;;;;;19.17;86.23;101640.72;4986269;28;20054;-78
2022/07/21 09:16:49;;;;;;;12.98;11.77;;;;;;;19.03;86.98;101635.09;4982748;28;20073;-79
2022/07/21 09:19:22;;;;;;;13.65;12.45;;;;;;;19.14;86.62;101636.59;4983257;28;20026;-79
2022/07/21 09:21:50;;;;;;;12.75;11.63;;;;;;;19.12;86.60;101635.13;4987339;28;20375;-79
2022/07/21 09:24:17;;;;;;;13.20;12.00;;;;;;;19.08;87.07;101639.88;4985442;28;20374;-79
2022/07/21 09:27:03;;;;;;;13.57;12.30;;;;;;;19.06;87.55;101642.69;4987351;28;20037;-78
2022/07/21 09:29:37;;;;;;;12.68;11.57;;;;;;;19.05;88.30;101643.66;4986784;28;20460;-78
2022/07/21 09:32:30;;;;;;;13.25;12.05;;;;;;;19.00;88.66;101651.22;4986825;28;20073;-79
2022/07/21 09:35:03;;;;;;;13.45;12.25;;;;;;;18.87;89.16;101650.84;4980017;28;20038;-77
2022/07/21 09:37:29;;;;;;;13.10;11.90;;;;;;;18.89;88.83;101648.88;4986481;28;20026;-79
2022/07/21 09:39:57;;;;;;;13.20;12.00;;;;;;;18.84;90.01;101651.16;4986722;28;20477;-78
2022/07/21 09:42:27;;;;;;;12.67;11.50;;;;;;;18.83;89.40;101654.78;4986339;28;20025;-79
2022/07/21 09:44:56;;;;;;;13.43;12.27;;;;;;;18.91;89.08;101662.66;4986909;28;20034;-78
2022/07/21 09:47:24;;;;;;;13.60;12.40;;;;;;;18.86;89.77;101659.69;4986993;28;20037;-78
2022/07/21 09:49:50;;;;;;;14.35;12.98;;;;;;;18.83;90.48;101665.28;4987027;28;20116;-78
2022/07/21 09:52:23;;;;;;;14.80;13.50;;;;;;;18.80;91.06;101660.31;4985869;28;20031;-78
2022/07/21 09:54:49;;;;;;;14.32;12.98;;;;;;;18.95;89.65;101660.56;4986403;28;20073;-79
2022/07/21 09:57:19;;;;;;;15.38;13.98;;;;;;;18.87;90.66;101666.63;4986820;28;20069;-81
2022/07/21 09:59:47;;;;;;;15.23;13.75;;;;;;;18.92;90.04;101674.81;4986265;28;20035;-78
2022/07/21 10:02:29;;;;;;;15.05;13.75;;;;;;;18.96;90.09;101668.28;4986673;28;20073;-79
2022/07/21 10:04:59;;;;;;;14.70;13.30;;;;;;;18.78;90.04;101667.56;4986582;28;20070;-80
2022/07/21 10:07:28;;;;;;;13.15;11.90;;;;;;;18.79;90.22;101674.47;4985301;28;20077;-79
2022/07/21 10:09:55;;;;;;;13.30;12.07;;;;;;;18.76;90.22;101675.59;4990734;28;20045;-79
2022/07/21 10:12:22;;;;;;;12.57;11.38;;;;;;;18.79;89.93;101679.72;4985671;28;20026;-80
2022/07/21 10:14:48;;;;;;;11.85;10.68;;;;;;;18.94;89.39;101685.22;5001441;28;20134;-80
2022/07/21 10:17:17;;;;;;;12.43;11.23;;;;;;;18.84;90.44;101693.22;4985715;28;20109;-76
2022/07/21 10:20:00;;;;;;;11.68;10.55;;;;;;;18.79;90.09;101687.59;4987100;28;20026;-80
2022/07/21 10:22:34;;;;;;;11.77;10.57;;;;;;;18.81;90.32;101690.91;4985552;28;20489;-78
2022/07/21 10:25:02;;;;;;;11.32;10.20;;;;;;;18.81;89.64;101683.84;4986572;28;20146;-81
2022/07/21 10:27:27;;;;;;;11.30;10.20;;;;;;;18.74;90.59;101692.50;4985649;28;20032;-80
2022/07/21 10:30:03;;;;;;;11.25;9.88;;;;;;;18.77;90.83;101689.56;4985745;28;20034;-79
2022/07/21 10:32:40;;;;;;;11.05;9.85;;;;;;;18.79;91.32;101690.22;4985642;28;20113;-80
2022/07/21 10:35:28;;;;;;;10.68;9.57;;;;;;;18.73;90.98;101688.22;4986289;28;20109;-81
2022/07/21 10:37:53;;;;;;;10.02;8.95;;;;;;;18.70;90.73;101696.44;4985817;28;20033;-79
2022/07/21 10:40:19;;;;;;;10.63;9.57;;;;;;;18.73;91.54;101704.00;4985869;28;20026;-82
2022/07/21 10:42:45;;;;;;;9.73;8.67;;;;;;;18.78;90.86;101704.34;4986002;28;20026;-76
2022/07/21 10:45:29;;;;;;;9.82;8.43;;;;;;;18.90;91.17;101703.09;4986262;28;20615;-80
2022/07/21 10:47:54;;;;;;;9.77;8.48;;;;;;;18.89;90.25;101696.19;4986072;28;20474;-77
2022/07/21 10:50:30;;;;;;;9.27;8.35;;;;;;;18.94;91.18;101699.16;4985516;28;20025;-81
2022/07/21 10:53:00;;;;;;;10.70;9.65;;;;;;;18.88;91.67;101705.06;4986116;28;20471;-81
2022/07/21 10:55:29;;;;;;;10.70;9.07;;;;;;;19.00;91.20;101711.69;4986953;28;20081;-81
2022/07/21 10:58:17;;;;;;;;;;;;;;;19.19;89.34;101717.66;4990021;28;20052;-80
2022/07/21 11:00:57;;;;;;;9.90;8.88;;;;;;;18.92;90.67;101706.38;4984480;28;19913;-80
2022/07/21 11:03:38;;;;;;;9.63;8.63;;;;;;;19.01;90.29;101710.69;4988969;28;20030;-80
2022/07/21 11:06:09;;;;;;;9.60;8.60;;;;;;;18.91;90.34;101707.34;4988378;28;20033;-79
2022/07/21 11:08:47;;;;;;;9.85;8.57;;;;;;;19.00;89.96;101711.69;4985404;28;20030;-78
2022/07/21 11:11:21;;;;;;;9.70;8.70;;;;;;;18.88;90.08;101710.31;4989201;28;20463;-80
2022/07/21 11:14:07;;;;;;;11.23;9.90;;;;;;;18.92;89.69;101710.81;4989455;28;20050;-78